Time;durP1;ratioP1;P1;durP2;ratioP2;P2;SDS_P1;SDS_P2;PMS_P1;PMS_P2;Temp;Humidity;BMP_temperature;BMP_pressure;BME280_temperature;BME280_humidity;BME280_pressure;Samples;Min_cycle;Max_cycle;Signal;HPM_P1;HPM_P2
2023/12/03 16:17:09;;;;;;;39.50;19.20;;;;;;;-1.87;100.00;99569.42;265666;1303;544733;-89
2023/12/03 16:23:13;;;;;;;36.20;17.40;;;;;;;-2.20;100.00;99575.89;269590;1279;23936;-89
2023/12/03 16:29:16;;;;;;;42.00;19.20;;;;;;;-2.44;100.00;99582.40;270732;1276;349227;-88
2023/12/03 16:35:18;;;;;;;43.10;19.40;;;;;;;-2.67;100.00;99588.14;270913;1276;25088;-88
2023/12/03 16:41:21;;;;;;;34.60;18.40;;;;;;;-2.86;100.00;99595.72;268974;1277;22403;-88
2023/12/03 16:47:25;;;;;;;42.30;17.80;;;;;;;-2.95;100.00;99601.11;272588;1269;22291;-88
2023/12/03 16:53:27;;;;;;;42.90;19.30;;;;;;;-2.94;100.00;99603.25;272480;1269;22427;-88
2023/12/03 16:59:29;;;;;;;42.90;18.40;;;;;;;-2.99;100.00;99602.61;272511;1269;22345;-89
2023/12/03 17:05:33;;;;;;;43.50;18.20;;;;;;;-3.02;100.00;99603.53;272461;1269;22269;-88
2023/12/03 17:11:36;;;;;;;42.20;19.90;;;;;;;-3.06;100.00;99605.80;271627;1269;22471;-88
2023/12/03 17:17:39;;;;;;;47.80;21.70;;;;;;;-3.04;100.00;99614.41;272394;1270;22352;-89
2023/12/03 17:23:42;;;;;;;41.50;20.90;;;;;;;-3.05;100.00;99618.54;272352;1270;22302;-89
2023/12/03 17:29:44;;;;;;;43.60;23.10;;;;;;;-3.05;100.00;99622.02;257286;1270;20003242;-89
2023/12/03 17:35:47;;;;;;;44.00;21.00;;;;;;;-3.09;100.00;99620.00;272373;1270;22343;-89
2023/12/03 17:42:01;;;;;;;54.00;25.20;;;;;;;-3.20;100.00;99621.30;272253;1269;22425;-89
2023/12/03 17:48:05;;;;;;;;;;;;;;;-3.16;100.00;99627.19;272356;1269;22901;-88
2023/12/03 17:54:19;;;;;;;;;;;;;;;;;;;;;
2023/12/03 18:00:27;;;;;;;49.10;23.90;;;;;;;-3.32;100.00;99624.73;272449;1269;23498;-89
2023/12/03 18:06:31;;;;;;;57.20;24.30;;;;;;;-3.30;100.00;99629.02;272418;1270;22470;-89
2023/12/03 18:12:38;;;;;;;49.30;22.50;;;;;;;-3.32;100.00;99628.86;272216;1269;23189;-90
2023/12/03 18:18:41;;;;;;;51.00;24.30;;;;;;;-3.34;100.00;99635.30;272335;1269;22542;-89
2023/12/03 18:24:49;;;;;;;59.20;26.50;;;;;;;-3.37;100.00;99634.81;272187;1269;23693;-90
2023/12/03 18:30:59;;;;;;;58.00;24.30;;;;;;;-3.39;100.00;99636.04;272221;1270;22410;-89
2023/12/03 18:37:12;;;;;;;;;;;;;;;;;;;;;
2023/12/03 18:43:14;;;;;;;54.00;27.00;;;;;;;-3.32;100.00;99632.56;272416;1269;22433;-90
2023/12/03 18:49:19;;;;;;;53.40;23.50;;;;;;;-3.28;100.00;99634.91;272372;1270;22421;-90
2023/12/03 18:55:29;;;;;;;50.50;22.10;;;;;;;-3.39;100.00;99625.77;272254;1269;22442;-89
2023/12/03 19:01:32;;;;;;;54.40;23.50;;;;;;;-3.45;100.00;99623.25;272304;1270;23607;-90
2023/12/03 19:07:37;;;;;;;45.90;21.90;;;;;;;-3.39;100.00;99621.21;272155;1269;23255;-89
2023/12/03 19:13:39;;;;;;;56.40;25.20;;;;;;;-3.41;100.00;99630.59;272253;1269;22395;-91
2023/12/03 19:19:47;;;;;;;50.20;20.70;;;;;;;-3.48;100.00;99638.51;272419;1269;22447;-90
2023/12/03 19:26:04;;;;;;;48.80;21.90;;;;;;;-3.48;100.00;99636.15;272494;1269;22227;-89
2023/12/03 19:32:17;;;;;;;46.70;20.90;;;;;;;-3.56;100.00;99632.20;272303;1269;22390;-89
2023/12/03 19:38:22;;;;;;;46.10;20.90;;;;;;;-3.67;100.00;99640.00;272322;1269;23229;-90
2023/12/03 19:44:27;;;;;;;42.20;19.90;;;;;;;-3.77;100.00;99642.02;272166;1269;23462;-89
2023/12/03 19:50:29;;;;;;;43.80;20.60;;;;;;;-3.92;100.00;99644.52;272383;1264;23616;-89
2023/12/03 19:56:34;;;;;;;54.10;22.50;;;;;;;-4.07;100.00;99643.30;272351;1269;22527;-89
2023/12/03 20:02:37;;;;;;;;;;;;;;;-4.23;100.00;99643.17;272099;1269;22955;-89
2023/12/03 20:08:41;;;;;;;50.90;23.20;;;;;;;-4.36;100.00;99650.39;272198;1270;22189;-89
2023/12/03 20:14:49;;;;;;;56.80;25.20;;;;;;;-4.53;100.00;99656.10;272259;1270;22425;-90
2023/12/03 20:21:03;;;;;;;72.50;30.60;;;;;;;-4.70;100.00;99655.70;272338;1270;23658;-88
2023/12/03 20:27:19;;;;;;;73.50;29.00;;;;;;;-4.77;100.00;99659.52;272076;1270;22411;-90
2023/12/03 20:33:25;;;;;;;70.20;28.80;;;;;;;-4.85;100.00;99656.80;272115;1269;22417;-89
2023/12/03 20:39:40;;;;;;;74.90;31.50;;;;;;;-5.00;100.00;99654.36;270393;1270;22532;-88
2023/12/03 20:46:09;;;;;;;62.80;28.40;;;;;;;-5.18;100.00;99651.89;272204;1270;22515;-89
2023/12/03 20:52:25;;;;;;;;;;;;;;;;;;;;;
2023/12/03 20:58:39;;;;;;;64.80;28.80;;;;;;;-5.46;100.00;99658.52;272347;1269;22380;-89
2023/12/03 21:04:42;;;;;;;65.60;29.00;;;;;;;-5.60;100.00;99667.52;272160;1269;22336;-88
2023/12/03 21:10:46;;;;;;;63.30;29.00;;;;;;;-5.80;100.00;99672.33;272358;1270;22214;-89
2023/12/03 21:16:55;;;;;;;65.90;27.60;;;;;;;-5.94;100.00;99668.20;271809;1269;22564;-88
2023/12/03 21:23:00;;;;;;;63.00;29.90;;;;;;;-6.01;100.00;99669.85;271976;1270;22512;-89
2023/12/03 21:29:03;;;;;;;68.10;30.10;;;;;;;-6.08;100.00;99674.25;272876;1266;22627;-88
2023/12/03 21:35:08;;;;;;;60.30;25.90;;;;;;;-6.16;100.00;99672.56;272938;1267;22409;-89
2023/12/03 21:41:13;;;;;;;55.50;24.30;;;;;;;-6.23;100.00;99669.91;272832;1266;22494;-88
2023/12/03 21:47:15;;;;;;;158.30;57.80;;;;;;;-6.21;100.00;99667.98;273192;1266;22503;-88
2023/12/03 21:53:17;;;;;;;55.70;20.70;;;;;;;-6.00;100.00;99662.98;273120;1267;22443;-88
2023/12/03 21:59:19;;;;;;;33.90;16.70;;;;;;;-5.76;100.00;99664.36;273086;1266;22371;-88
2023/12/03 22:05:22;;;;;;;43.90;16.90;;;;;;;-5.54;100.00;99664.81;273029;1266;22424;-88
2023/12/03 22:11:25;;;;;;;34.80;14.90;;;;;;;-5.33;100.00;99667.54;273072;1266;22458;-89
2023/12/03 22:17:27;;;;;;;28.20;12.10;;;;;;;-5.17;100.00;99673.15;272995;1266;23604;-88
2023/12/03 22:23:29;;;;;;;25.00;12.10;;;;;;;-4.99;100.00;99673.11;272960;1266;23575;-88
2023/12/03 22:29:31;;;;;;;30.00;12.90;;;;;;;-4.88;100.00;99669.13;272964;1266;22231;-89
2023/12/03 22:35:34;;;;;;;29.70;13.00;;;;;;;-4.75;100.00;99670.96;271349;1266;22256;-88
2023/12/03 22:41:36;;;;;;;36.10;13.80;;;;;;;-4.62;100.00;99679.09;271829;1266;23203;-88
2023/12/03 22:47:38;;;;;;;34.90;14.80;;;;;;;-4.52;100.00;99679.14;273157;1266;22179;-88
2023/12/03 22:53:40;;;;;;;35.00;14.30;;;;;;;-4.43;100.00;99679.83;272689;1267;24710;-88
2023/12/03 22:59:44;;;;;;;38.10;14.20;;;;;;;-4.42;100.00;99678.49;272851;1266;22454;-87
2023/12/03 23:05:46;;;;;;;35.70;14.40;;;;;;;-4.43;100.00;99679.98;272482;1266;22532;-88
2023/12/03 23:11:48;;;;;;;31.10;15.70;;;;;;;-4.44;100.00;99676.46;272738;1266;23437;-88
2023/12/03 23:17:50;;;;;;;35.10;14.80;;;;;;;-4.42;100.00;99680.85;273037;1267;23517;-88
2023/12/03 23:23:52;;;;;;;32.10;13.30;;;;;;;-4.34;100.00;99679.16;273052;1266;22318;-87
2023/12/03 23:29:55;;;;;;;28.80;13.00;;;;;;;-4.24;100.00;99675.40;273263;1266;22464;-88
2023/12/03 23:35:57;;;;;;;32.40;14.10;;;;;;;-4.15;100.00;99675.85;272587;1266;22519;-88
2023/12/03 23:41:59;;;;;;;40.50;15.40;;;;;;;-4.13;100.00;99675.01;273238;1267;22373;-88
2023/12/03 23:48:01;;;;;;;33.30;15.00;;;;;;;-4.16;100.00;99675.48;273284;1267;22419;-89
2023/12/03 23:54:03;;;;;;;35.70;15.90;;;;;;;-4.17;100.00;99678.16;273193;1266;22453;-88
